GMTA/AHU METAR and TAF weather

Enter ICAO airport designator
Station Type Date Time Source
GMTA METAR 2020/11/25 22:00 UTC NOAA

GMTA 252200Z VRB02KT 9999 SCT090 14/09 Q1009 NOSIG


Station Type Date Time Source
GMTA Decoded METAR 2020/11/25 22:00 UTC NOAA

Al Hoceima, Morocco (GMTA) 35-11N 003-51W 14M
Nov 25, 2020 - 05:00 PM EST / 2020.11.25 2200 UTC
Wind: Variable at 2 MPH (2 KT):0
Visibility: greater than 7 mile(s):0
Sky conditions: partly cloudy
Temperature: 57 F (14 C)
Dew Point: 48 F (9 C)
Relative Humidity: 71%
Pressure (altimeter): 29.80 in. Hg (1009 hPa)
ob: GMTA 252200Z VRB02KT 9999 SCT090 14/09 Q1009 NOSIG
cycle: 22

Station Type Date Time Source
GMTA TAF 2020/11/25 18:18 UTC NOAA

TAF GMTA 251700Z 2518/2624 26005KT 9999 FEW020 PROB30
TEMPO 2611/2615 6000 -RA

Example: see airport list